.
WxDataArchive / Data Records for 2016-01-11
2016-01-10 January 2016 2016-01-12

Data Records for Monday, 11 January 2016

Time	Temp	Chill	HIndex	Humid	Dewpt	 Wind 	HiWind	WindDir	Rain 	Barom
-----	----	-----	------	-----	-----	------	------	-------	-----	-----
00:00	9.2	9.2	9.2	73	2.3	2	5	270	0.00	30.062 
00:05	9.0	9.0	9.0	72	1.8	2	4	270	0.00	30.062 
00:10	8.8	8.8	8.8	71	1.4	2	5	248	0.00	30.062 
00:15	8.8	8.8	8.8	71	1.4	2	5	248	0.00	30.068 
00:20	8.6	8.6	8.6	71	1.2	1	3	248	0.00	30.068 
00:25	8.8	8.8	8.8	72	1.6	1	3	248	0.00	30.068 
00:30	8.8	8.8	8.8	72	1.6	1	3	248	0.00	30.068 
00:35	8.8	8.8	8.8	72	1.6	1	5	270	0.00	30.068 
00:40	8.6	8.6	8.6	71	1.2	2	5	270	0.00	30.068 
00:45	8.4	8.4	8.4	71	1.0	1	6	270	0.00	30.069 
00:50	8.4	8.4	8.4	71	1.0	1	4	270	0.00	30.069 
00:55	8.4	8.4	8.4	71	1.0	2	6	270	0.00	30.069 
01:00	8.3	8.3	8.3	71	0.9	2	4	270	0.00	30.069 
01:05	8.1	8.1	8.1	71	0.7	2	4	248	0.00	30.069 
01:10	8.1	8.1	8.1	72	1.0	2	5	248	0.00	30.069 
01:15	8.1	8.1	8.1	72	1.0	2	4	248	0.00	30.073 
01:20	8.1	8.1	8.1	73	1.3	2	4	292	0.00	30.073 
01:25	8.1	8.1	8.1	73	1.3	1	4	292	0.00	30.073 
01:30	8.1	8.1	8.1	72	1.0	2	4	292	0.00	30.072 
01:35	8.1	8.1	8.1	72	1.0	1	3	270	0.00	30.072 
01:40	8.1	8.1	8.1	72	1.0	1	3	248	0.00	30.072 
01:45	8.3	8.3	8.3	73	1.5	1	4	292	0.00	30.073 
01:50	8.3	8.3	8.3	73	1.5	1	4	270	0.00	30.073 
01:55	8.4	8.4	8.4	74	1.8	1	3	270	0.00	30.073 
02:00	8.4	8.4	8.4	74	1.8	1	4	248	0.00	30.077 
02:05	8.4	8.4	8.4	74	1.8	1	3	248	0.00	30.077 
02:10	8.4	8.4	8.4	74	1.8	1	3	248	0.00	30.077 
02:15	8.4	8.4	8.4	74	1.8	1	3	248	0.00	30.078 
02:20	8.4	8.4	8.4	73	1.6	1	4	248	0.00	30.078 
02:25	8.4	8.4	8.4	73	1.6	1	4	248	0.00	30.078 
02:30	8.3	8.3	8.3	73	1.5	1	5	248	0.00	30.084 
02:35	8.3	8.3	8.3	73	1.5	1	4	270	0.00	30.084 
02:40	8.3	8.3	8.3	72	1.2	1	4	270	0.00	30.084 
02:45	8.1	8.1	8.1	72	1.0	1	3	248	0.00	30.088 
02:50	8.1	8.1	8.1	72	1.0	0	3	248	0.00	30.088 
02:55	8.1	8.1	8.1	72	1.0	0	2	248	0.00	30.088 
03:00	8.1	8.1	8.1	71	0.7	1	5	248	0.00	30.090 
03:05	7.9	7.9	7.9	71	0.5	1	6	248	0.00	30.090 
03:10	7.9	7.9	7.9	71	0.5	1	3	248	0.00	30.090 
03:15	7.9	7.9	7.9	71	0.5	1	4	248	0.00	30.097 
03:20	7.9	7.9	7.9	70	0.2	1	4	248	0.00	30.097 
03:25	7.7	7.7	7.7	70	-0.0	1	5	248	0.00	30.097 
03:30	7.7	7.7	7.7	70	-0.0	2	5	248	0.00	30.102 
03:35	7.6	7.6	7.6	70	-0.1	2	4	248	0.00	30.102 
03:40	7.6	7.6	7.6	70	-0.1	1	4	270	0.00	30.102 
03:45	7.4	7.4	7.4	70	-0.3	2	5	248	0.00	30.106 
03:50	7.4	7.4	7.4	70	-0.3	1	3	248	0.00	30.106 
03:55	7.2	7.2	7.2	70	-0.5	1	3	248	0.00	30.106 
04:00	7.2	7.2	7.2	70	-0.5	2	5	270	0.00	30.108 
04:05	7.0	7.0	7.0	70	-0.7	1	4	270	0.00	30.108 
04:10	7.0	7.0	7.0	70	-0.7	1	5	270	0.00	30.108 
04:15	7.0	7.0	7.0	70	-0.7	1	3	270	0.00	30.106 
04:20	7.0	7.0	7.0	71	-0.4	1	3	270	0.00	30.106 
04:25	6.9	6.9	6.9	71	-0.5	1	3	270	0.00	30.106 
04:30	6.9	6.9	6.9	71	-0.5	0	3	270	0.00	30.098 
04:35	6.9	6.9	6.9	72	-0.2	1	4	315	0.00	30.098 
04:40	6.9	6.9	6.9	72	-0.2	0	2	315	0.00	30.098 
04:45	6.9	6.9	6.9	72	-0.2	1	3	270	0.00	30.099 
04:50	6.7	6.7	6.7	72	-0.4	1	3	270	0.00	30.099 
04:55	6.7	6.7	6.7	72	-0.4	0	2	270	0.00	30.099 
05:00	6.7	6.7	6.7	72	-0.4	1	2	270	0.00	30.095 
05:05	6.7	6.7	6.7	71	-0.7	1	3	270	0.00	30.095 
05:10	6.7	6.7	6.7	71	-0.7	1	3	270	0.00	30.095 
05:15	6.7	6.7	6.7	71	-0.7	0	1	270	0.00	30.099 
05:20	6.5	6.5	6.5	71	-0.9	1	3	270	0.00	30.099 
05:25	6.5	6.5	6.5	71	-0.9	0	2	270	0.00	30.099 
05:30	6.5	6.5	6.5	72	-0.6	0	2	270	0.00	30.099 
05:35	6.5	6.5	6.5	72	-0.6	0	1	270	0.00	30.099 
05:40	6.5	6.5	6.5	72	-0.6	0	1	270	0.00	30.099 
05:45	6.5	6.5	6.5	73	-0.3	0	1	270	0.00	30.100 
05:50	6.5	6.5	6.5	73	-0.3	0	2	270	0.00	30.100 
05:55	6.7	6.7	6.7	73	-0.1	0	3	270	0.00	30.100 
06:00	6.7	6.7	6.7	73	-0.1	0	3	270	0.00	30.104 
06:05	6.7	6.7	6.7	73	-0.1	0	2	270	0.00	30.104 
06:10	6.7	6.7	6.7	73	-0.1	0	2	270	0.00	30.104 
06:15	6.7	6.7	6.7	73	-0.1	0	2	270	0.00	30.108 
06:20	6.7	6.7	6.7	73	-0.1	0	2	270	0.00	30.108 
06:25	6.7	6.7	6.7	73	-0.1	0	2	270	0.00	30.108 
06:30	6.7	6.7	6.7	73	-0.1	0	2	270	0.00	30.111 
06:35	6.7	6.7	6.7	73	-0.1	0	1	270	0.00	30.111 
06:40	6.7	6.7	6.7	73	-0.1	0	1	270	0.00	30.111 
06:45	6.7	6.7	6.7	74	0.2	0	2	270	0.00	30.113 
06:50	6.5	6.5	6.5	73	-0.3	1	6	315	0.00	30.113 
06:55	6.3	6.3	6.3	73	-0.5	1	3	292	0.00	30.113 
07:00	6.1	6.1	6.1	73	-0.7	1	2	292	0.00	30.117 
07:05	6.1	6.1	6.1	74	-0.4	0	1	292	0.00	30.117 
07:10	6.1	6.1	6.1	74	-0.4	0	1	292	0.00	30.117 
07:15	6.1	6.1	6.1	74	-0.4	0	1	292	0.00	30.122 
07:20	6.0	6.0	6.0	74	-0.5	0	1	292	0.00	30.122 
07:25	6.0	6.0	6.0	74	-0.5	0	1	292	0.00	30.122 
07:30	6.0	6.0	6.0	74	-0.5	0	1	292	0.00	30.123 
07:35	5.8	5.8	5.8	74	-0.7	0	2	292	0.00	30.123 
07:40	5.8	5.8	5.8	74	-0.7	0	1	292	0.00	30.123 
07:45	5.6	5.6	5.6	74	-0.9	0	1	292	0.00	30.128 
07:50	5.6	5.6	5.6	74	-0.9	0	1	292	0.00	30.128 
07:55	5.4	5.4	5.4	74	-1.1	0	1	292	0.00	30.128 
08:00	5.4	5.4	5.4	74	-1.1	0	0	---	0.00	30.133 
08:05	5.4	5.4	5.4	74	-1.1	0	2	292	0.00	30.133 
08:10	5.4	5.4	5.4	74	-1.1	0	2	292	0.00	30.133 
08:15	5.4	5.4	5.4	73	-1.3	0	2	292	0.00	30.136 
08:20	5.4	5.4	5.4	73	-1.3	0	1	292	0.00	30.136 
08:25	5.4	5.4	5.4	73	-1.3	0	1	292	0.00	30.136 
08:30	5.6	5.6	5.6	73	-1.1	0	2	292	0.00	30.136 
08:35	5.6	5.6	5.6	73	-1.1	0	1	292	0.00	30.136 
08:40	5.8	5.8	5.8	73	-1.0	0	1	292	0.00	30.136 
08:45	6.0	6.0	6.0	73	-0.8	0	2	292	0.00	30.134 
08:50	6.0	6.0	6.0	73	-0.8	0	2	292	0.00	30.134 
08:55	6.1	6.1	6.1	72	-1.0	1	2	270	0.00	30.134 
09:00	6.3	6.3	6.3	72	-0.8	0	2	270	0.00	30.146 
09:05	6.5	6.5	6.5	72	-0.6	0	3	270	0.00	30.146 
09:10	6.5	6.5	6.5	71	-0.9	1	4	292	0.00	30.146 
09:15	6.7	6.7	6.7	71	-0.7	0	3	292	0.00	30.150 
09:20	6.9	6.9	6.9	70	-0.8	0	3	270	0.00	30.150 
09:25	7.0	7.0	7.0	70	-0.7	0	3	248	0.00	30.150 
09:30	7.2	7.2	7.2	69	-0.8	0	2	248	0.00	30.160 
09:35	7.4	7.4	7.4	69	-0.6	0	4	248	0.00	30.160 
09:40	7.7	7.7	7.7	69	-0.3	0	2	248	0.00	30.160 
09:45	7.9	7.9	7.9	67	-0.7	1	4	248	0.00	30.162 
09:50	7.9	7.9	7.9	67	-0.7	1	4	248	0.00	30.162 
09:55	7.9	7.9	7.9	67	-0.7	1	5	248	0.00	30.162 
10:00	8.1	8.1	8.1	66	-0.9	1	4	270	0.00	30.164 
10:05	8.3	8.3	8.3	66	-0.7	1	3	270	0.00	30.164 
10:10	8.6	8.6	8.6	65	-0.7	1	4	270	0.00	30.164 
10:15	8.8	8.8	8.8	65	-0.5	1	3	270	0.00	30.167 
10:20	9.0	9.0	9.0	65	-0.3	0	3	270	0.00	30.167 
10:25	9.3	9.3	9.3	65	-0.0	0	3	270	0.00	30.167 
10:30	9.3	9.3	9.3	64	-0.4	1	4	270	0.00	30.164 
10:35	9.5	9.5	9.5	64	-0.2	1	3	270	0.00	30.164 
10:40	9.7	9.7	9.7	63	-0.3	1	3	270	0.00	30.164 
10:45	9.7	9.7	9.7	62	-0.7	1	4	270	0.00	30.164 
10:50	9.9	9.9	9.9	62	-0.5	1	3	248	0.00	30.164 
10:55	10.0	10.0	10.0	63	-0.0	1	3	248	0.00	30.164 
11:00	10.4	10.4	10.4	63	0.3	1	2	248	0.00	30.162 
11:05	10.7	10.7	10.7	62	0.3	0	3	248	0.00	30.162 
11:10	10.7	10.7	10.7	62	0.3	2	6	248	0.00	30.162 
11:15	10.7	10.7	10.7	62	0.3	1	3	270	0.00	30.159 
11:20	10.9	10.9	10.9	63	0.8	1	4	292	0.00	30.159 
11:25	11.1	11.1	11.1	64	1.3	1	3	292	0.00	30.159 
11:30	11.2	11.2	11.2	64	1.4	1	3	292	0.00	30.159 
11:35	11.6	11.6	11.6	65	2.1	0	2	292	0.00	30.159 
11:40	11.7	11.7	11.7	65	2.2	1	3	292	0.00	30.159 
11:45	11.7	11.7	11.7	65	2.2	1	4	270	0.00	30.148 
11:50	12.1	12.1	12.1	65	2.6	1	4	270	0.00	30.148 
11:55	12.3	12.3	12.3	66	3.1	1	3	270	0.00	30.148 
12:00	12.6	12.6	12.6	65	3.1	1	3	270	0.00	30.143 
12:05	12.8	12.8	12.8	65	3.3	1	4	270	0.00	30.143 
12:10	13.1	13.1	13.1	65	3.6	0	2	270	0.00	30.143 
12:15	13.6	13.6	13.6	65	4.1	0	3	270	0.00	30.136 
12:20	13.8	13.8	13.8	64	3.9	1	4	248	0.00	30.136 
12:25	14.0	14.0	14.0	64	4.1	1	3	248	0.00	30.136 
12:30	14.4	14.4	14.4	65	4.8	0	3	248	0.00	30.126 
12:35	14.6	14.6	14.6	64	4.7	1	4	248	0.00	30.126 
12:40	14.6	14.6	14.6	64	4.7	1	4	270	0.00	30.126 
12:45	14.3	14.3	14.3	64	4.4	1	5	270	0.00	30.114 
12:50	14.3	14.3	14.3	64	4.4	0	3	292	0.00	30.114 
12:55	14.3	14.3	14.3	64	4.4	0	2	292	0.00	30.114 
13:00	14.6	14.6	14.6	66	5.3	1	3	292	0.00	30.109 
13:05	15.1	15.1	15.1	65	5.5	1	3	248	0.00	30.109 
13:10	15.4	15.4	15.4	65	5.8	1	3	248	0.00	30.109 
13:15	15.7	15.7	15.7	65	6.1	0	3	248	0.00	30.095 
13:20	15.6	15.6	15.6	63	5.3	1	5	248	0.00	30.095 
13:25	15.6	15.6	15.6	64	5.6	0	3	248	0.00	30.095 
13:30	15.7	15.7	15.7	64	5.7	0	2	248	0.00	30.090 
13:35	15.4	15.4	15.4	63	5.1	1	2	248	0.00	30.090 
13:40	15.4	15.4	15.4	65	5.8	0	2	248	0.00	30.090 
13:45	15.6	15.6	15.6	66	6.3	0	1	248	0.00	30.077 
13:50	15.9	15.9	15.9	65	6.2	0	2	248	0.00	30.077 
13:55	15.9	15.9	15.9	65	6.2	0	3	90	0.00	30.077 
14:00	15.9	15.9	15.9	65	6.2	0	1	90	0.00	30.065 
14:05	16.2	16.2	16.2	66	6.9	0	1	90	0.00	30.065 
14:10	16.5	16.5	16.5	67	7.5	0	1	90	0.00	30.065 
14:15	16.9	16.9	16.9	67	7.9	1	3	248	0.00	30.059 
14:20	17.0	17.0	17.0	67	8.0	0	2	248	0.00	30.059 
14:25	17.0	17.0	17.0	68	8.3	1	6	90	0.00	30.059 
14:30	16.9	16.9	16.9	69	8.5	0	4	68	0.00	30.057 
14:35	16.9	16.9	16.9	69	8.5	0	2	68	0.00	30.057 
14:40	16.7	16.7	16.7	69	8.3	0	3	270	0.00	30.057 
14:45	16.5	16.5	16.5	71	8.8	0	3	90	0.00	30.059 
14:50	16.2	16.2	16.2	72	8.8	0	3	90	0.00	30.059 
14:55	16.2	16.2	16.2	72	8.8	0	2	90	0.00	30.059 
15:00	16.1	16.1	16.1	72	8.7	0	1	90	0.00	30.057 
15:05	16.1	16.1	16.1	72	8.7	0	1	90	0.00	30.057 
15:10	16.2	16.2	16.2	72	8.8	0	3	90	0.00	30.057 
15:15	16.1	16.1	16.1	72	8.7	0	3	90	0.00	30.054 
15:20	16.1	16.1	16.1	72	8.7	0	2	90	0.00	30.054 
15:25	16.2	16.2	16.2	73	9.1	0	1	90	0.00	30.054 
15:30	16.2	16.2	16.2	73	9.1	0	1	90	0.00	30.046 
15:35	16.4	16.4	16.4	73	9.3	0	2	90	0.00	30.046 
15:40	16.2	16.2	16.2	73	9.1	1	4	90	0.00	30.046 
15:45	16.1	16.1	16.1	73	9.0	1	3	90	0.00	30.036 
15:50	15.9	15.9	15.9	74	9.1	1	3	112	0.00	30.036 
15:55	15.9	15.9	15.9	75	9.4	0	2	112	0.00	30.036 
16:00	15.9	15.9	15.9	74	9.1	1	4	112	0.00	30.034 
16:05	15.9	15.9	15.9	75	9.4	0	3	112	0.00	30.034 
16:10	15.9	15.9	15.9	75	9.4	0	2	90	0.00	30.034 
16:15	16.1	16.1	16.1	75	9.6	0	1	90	0.00	30.033 
16:20	16.1	16.1	16.1	75	9.6	0	2	90	0.00	30.033 
16:25	16.1	16.1	16.1	75	9.6	0	3	90	0.00	30.033 
16:30	16.1	16.1	16.1	75	9.6	1	4	90	0.00	30.019 
16:35	16.1	16.1	16.1	75	9.6	1	4	112	0.00	30.019 
16:40	16.1	16.1	16.1	75	9.6	1	3	112	0.00	30.019 
16:45	16.2	16.2	16.2	75	9.7	1	3	112	0.00	30.015 
16:50	16.2	16.2	16.2	75	9.7	1	4	90	0.00	30.015 
16:55	16.1	16.1	16.1	75	9.6	1	4	90	0.00	30.015 
17:00	16.1	16.1	16.1	75	9.6	1	4	68	0.00	30.009 
17:05	16.1	16.1	16.1	75	9.6	1	6	112	0.00	30.009 
17:10	16.1	16.1	16.1	75	9.6	2	6	112	0.00	30.009 
17:15	16.1	16.1	16.1	76	9.9	2	6	90	0.00	30.002 
17:20	16.2	16.2	16.2	76	10.0	1	5	112	0.00	30.002 
17:25	16.2	16.2	16.2	76	10.0	2	6	112	0.00	30.002 
17:30	16.2	16.2	16.2	76	10.0	1	5	112	0.00	29.996 
17:35	16.4	16.4	16.4	76	10.2	1	5	112	0.00	29.996 
17:40	16.4	16.4	16.4	76	10.2	1	4	112	0.00	29.996 
17:45	16.5	16.5	16.5	76	10.3	1	3	112	0.00	29.995 
17:50	16.7	16.7	16.7	76	10.5	1	4	112	0.00	29.995 
17:55	16.7	16.7	16.7	76	10.5	1	5	90	0.00	29.995 
18:00	16.9	16.9	16.9	76	10.7	1	3	112	0.00	29.997 
18:05	16.9	16.9	16.9	76	10.7	0	3	112	0.00	29.997 
18:10	16.9	16.9	16.9	75	10.4	1	4	90	0.00	29.997 
18:15	17.0	17.0	17.0	75	10.5	1	3	90	0.00	30.001 
18:20	17.0	17.0	17.0	73	9.9	1	5	90	0.00	30.001 
18:25	17.2	17.2	17.2	73	10.1	1	4	112	0.00	30.001 
18:30	17.2	17.2	17.2	73	10.1	1	3	112	0.00	29.996 
18:35	17.3	17.3	17.3	73	10.2	1	3	112	0.00	29.996 
18:40	17.3	17.3	17.3	73	10.2	1	3	112	0.00	29.996 
18:45	17.3	17.3	17.3	73	10.2	1	4	112	0.00	29.987 
18:50	17.3	17.3	17.3	73	10.2	1	5	90	0.00	29.987 
18:55	17.5	17.5	17.5	73	10.3	1	3	112	0.00	29.987 
19:00	17.5	17.5	17.5	73	10.3	1	5	112	0.00	29.981 
19:05	17.5	17.5	17.5	73	10.3	1	3	112	0.00	29.981 
19:10	17.5	17.5	17.5	75	11.0	1	3	112	0.00	29.981 
19:15	17.5	17.5	17.5	75	11.0	1	5	90	0.00	29.976 
19:20	17.5	17.5	17.5	76	11.3	1	4	90	0.00	29.976 
19:25	17.5	17.5	17.5	77	11.5	1	5	112	0.00	29.976 
19:30	17.5	17.5	17.5	77	11.5	2	6	112	0.00	29.969 
19:35	17.5	17.5	17.5	78	11.8	1	4	135	0.00	29.969 
19:40	17.5	17.5	17.5	79	12.1	1	4	135	0.00	29.969 
19:45	17.5	17.5	17.5	80	12.4	0	3	135	0.00	29.955 
19:50	17.5	17.5	17.5	80	12.4	0	3	135	0.00	29.955 
19:55	17.5	17.5	17.5	81	12.7	1	3	112	0.00	29.955 
20:00	17.5	17.5	17.5	81	12.7	1	4	112	0.00	29.946 
20:05	17.5	17.5	17.5	82	13.0	0	2	112	0.00	29.946 
20:10	17.5	17.5	17.5	82	13.0	1	5	112	0.00	29.946 
20:15	17.7	17.7	17.7	83	13.4	0	2	112	0.00	29.934 
20:20	17.7	17.7	17.7	83	13.4	0	2	112	0.00	29.934 
20:25	17.7	17.7	17.7	83	13.4	1	3	112	0.00	29.934 
20:30	17.8	17.8	17.8	84	13.8	0	2	112	0.00	29.921 
20:35	17.8	17.8	17.8	84	13.8	0	3	112	0.00	29.921 
20:40	18.0	18.0	18.0	84	14.0	0	1	112	0.00	29.921 
20:45	18.0	18.0	18.0	84	14.0	0	2	112	0.00	29.913 
20:50	18.1	18.1	18.1	85	14.4	0	2	112	0.00	29.913 
20:55	18.1	18.1	18.1	85	14.4	0	2	112	0.00	29.913 
21:00	18.3	18.3	18.3	85	14.6	1	5	112	0.00	29.901 
21:05	18.4	18.4	18.4	85	14.7	0	2	112	0.00	29.901 
21:10	18.4	18.4	18.4	85	14.7	1	5	112	0.00	29.901 
21:15	18.6	18.6	18.6	85	14.9	0	3	112	0.00	29.887 
21:20	18.8	18.8	18.8	85	15.1	0	2	112	0.00	29.887 
21:25	18.8	18.8	18.8	86	15.3	0	2	112	0.00	29.887 
21:30	18.9	18.9	18.9	86	15.4	0	3	112	0.00	29.877 
21:35	19.1	19.1	19.1	86	15.6	0	3	112	0.00	29.877 
21:40	19.1	19.1	19.1	86	15.6	0	2	112	0.00	29.877 
21:45	19.2	19.2	19.2	86	15.7	1	3	112	0.00	29.865 
21:50	19.4	19.4	19.4	86	15.9	1	2	112	0.00	29.865 
21:55	19.4	19.4	19.4	86	15.9	1	3	112	0.00	29.865 
22:00	19.5	19.5	19.5	86	16.0	1	3	112	0.00	29.849 
22:05	19.7	19.7	19.7	86	16.2	1	3	112	0.00	29.849 
22:10	19.9	19.9	19.9	86	16.4	0	2	112	0.00	29.849 
22:15	19.9	19.9	19.9	86	16.4	0	2	112	0.00	29.835 
22:20	20.0	20.0	20.0	87	16.8	0	3	112	0.00	29.835 
22:25	20.2	20.2	20.2	87	17.0	0	4	112	0.00	29.835 
22:30	20.3	20.3	20.3	87	17.1	0	2	112	0.00	29.825 
22:35	20.5	20.5	20.5	87	17.3	1	2	112	0.00	29.825 
22:40	20.5	20.5	20.5	87	17.3	0	3	112	0.00	29.825 
22:45	20.6	20.6	20.6	87	17.4	0	3	112	0.00	29.811 
22:50	20.8	20.8	20.8	87	17.6	0	1	112	0.00	29.811 
22:55	21.0	21.0	21.0	88	18.0	0	3	112	0.00	29.811 
23:00	21.1	21.1	21.1	88	18.1	1	4	112	0.00	29.796 
23:05	21.4	21.4	21.4	88	18.4	1	4	112	0.00	29.796 
23:10	21.6	21.6	21.6	88	18.6	0	2	112	0.00	29.796 
23:15	21.8	21.8	21.8	88	18.8	0	3	112	0.00	29.776 
23:20	21.9	21.9	21.9	88	18.9	0	2	112	0.00	29.776 
23:25	22.2	22.2	22.2	88	19.2	0	1	112	0.00	29.776 
23:30	22.4	22.4	22.4	89	19.7	0	5	112	0.00	29.766 
23:35	22.9	22.9	22.9	89	20.2	0	2	90	0.00	29.766 
23:40	23.2	23.2	23.2	89	20.4	0	4	112	0.00	29.766 
23:45	23.5	23.5	23.5	89	20.7	0	2	112	0.00	29.751 
23:50	23.9	23.9	23.9	89	21.1	0	2	338	0.00	29.751 
23:55	24.2	24.2	24.2	89	21.4	0	3	270	0.00	29.751 

CoCoRaHS
IN-AL-39
A2 Web Hosting
Creative Commons License
GoDaddy
search engine by freefind advanced

loaded 2018-11-12 15:57:03 • last modified 2010-11-18 10:43:29
Privacy PolicyDisclaimer
• wx.awcolley.com is powered by PmWiki v.2002016 •
• all content (unless otherwise noted) © 2018 A W Colley